Terminal Aerodrome Forecast
Issued by NWS

Home | Current Version | Previous Version | Text Only | Print | Product List | Glossary Off
Versions: 1 2 3 4 5 6 7 8 9 10 11 12 13 14 15 16 17 18 19 20

406
FTUS43 KBIS 180533
TAFDIK
TAF
KDIK 180533Z 1806/1906 24008KT P6SM FEW150 SCT250
     FM181300 21003KT P6SM BKN150
     FM181500 11007KT P6SM OVC110
     FM182300 12008KT P6SM SCT080
     FM190200 12007KT P6SM SCT005=

USA.gov is the U.S. government's official web portal to all federal, state and local government web resources and services.